Terminal Aerodrome Forecast
Issued by NWS

Home | Current Version | Previous Version | Text Only | Print | Product List | Glossary On
Versions: 1 2 3 4 5 6 7 8 9 10 11 12 13 14 15 16 17 18 19 20 21 22 23 24 25 26 27 28 29 30 31 32 33 34 35 36 37 38 39
000
FTUS43 KPAH 151140
TAFOWB
TAF
KOWB 151140Z 1512/1612 18009KT P6SM BKN050
     FM151400 21010KT 5SM -SN BR SCT015 OVC035
      TEMPO 1515/1519 1SM -SN BR OVC015
     FM151900 24011KT 3SM -SN BR OVC012
     FM152300 30011KT 5SM -SN BR OVC010
     FM160400 31009KT P6SM BKN150=

USA.gov is the U.S. government's official web portal to all federal, state and local government web resources and services.